sensor_id;sensor_type;location;lat;lon;timestamp;P1;durP1;ratioP1;P2;durP2;ratioP2
67063;SDS011;58476;48.072;11.970;2022-07-01T00:01:44;1.73;;;1.30;;
67063;SDS011;58476;48.072;11.970;2022-07-01T00:04:10;1.52;;;1.42;;
67063;SDS011;58476;48.072;11.970;2022-07-01T00:06:36;2.03;;;1.52;;
67063;SDS011;58476;48.072;11.970;2022-07-01T00:09:02;1.60;;;1.50;;
67063;SDS011;58476;48.072;11.970;2022-07-01T00:11:28;1.73;;;1.48;;
67063;SDS011;58476;48.072;11.970;2022-07-01T00:13:53;1.77;;;1.40;;
67063;SDS011;58476;48.072;11.970;2022-07-01T00:16:18;1.83;;;1.48;;
67063;SDS011;58476;48.072;11.970;2022-07-01T00:18:43;1.98;;;1.40;;
67063;SDS011;58476;48.072;11.970;2022-07-01T00:21:09;1.60;;;1.33;;
67063;SDS011;58476;48.072;11.970;2022-07-01T00:23:34;3.38;;;1.48;;
67063;SDS011;58476;48.072;11.970;2022-07-01T00:26:00;1.85;;;1.35;;
67063;SDS011;58476;48.072;11.970;2022-07-01T00:28:25;1.58;;;1.48;;
67063;SDS011;58476;48.072;11.970;2022-07-01T00:30:50;2.08;;;1.50;;
67063;SDS011;58476;48.072;11.970;2022-07-01T00:33:16;1.40;;;1.30;;
67063;SDS011;58476;48.072;11.970;2022-07-01T00:35:42;1.65;;;1.30;;
67063;SDS011;58476;48.072;11.970;2022-07-01T00:38:07;1.50;;;1.40;;
67063;SDS011;58476;48.072;11.970;2022-07-01T00:40:32;2.08;;;1.52;;
67063;SDS011;58476;48.072;11.970;2022-07-01T00:42:58;2.72;;;1.55;;
67063;SDS011;58476;48.072;11.970;2022-07-01T00:45:23;1.40;;;1.30;;
67063;SDS011;58476;48.072;11.970;2022-07-01T00:47:48;1.50;;;1.40;;
67063;SDS011;58476;48.072;11.970;2022-07-01T00:50:15;1.40;;;1.30;;
67063;SDS011;58476;48.072;11.970;2022-07-01T00:52:42;2.33;;;1.40;;
67063;SDS011;58476;48.072;11.970;2022-07-01T00:55:09;1.40;;;1.30;;
67063;SDS011;58476;48.072;11.970;2022-07-01T00:57:37;2.58;;;1.48;;
67063;SDS011;58476;48.072;11.970;2022-07-01T01:00:05;1.52;;;1.42;;
67063;SDS011;58476;48.072;11.970;2022-07-01T01:02:32;1.58;;;1.48;;
67063;SDS011;58476;48.072;11.970;2022-07-01T01:04:57;1.83;;;1.67;;
67063;SDS011;58476;48.072;11.970;2022-07-01T01:07:22;1.70;;;1.55;;
67063;SDS011;58476;48.072;11.970;2022-07-01T01:09:49;2.47;;;1.80;;
67063;SDS011;58476;48.072;11.970;2022-07-01T01:12:15;2.50;;;1.60;;
67063;SDS011;58476;48.072;11.970;2022-07-01T01:14:44;1.90;;;1.60;;
67063;SDS011;58476;48.072;11.970;2022-07-01T01:17:10;2.15;;;1.60;;
67063;SDS011;58476;48.072;11.970;2022-07-01T01:19:36;1.88;;;1.60;;
67063;SDS011;58476;48.072;11.970;2022-07-01T01:22:01;2.15;;;1.50;;
67063;SDS011;58476;48.072;11.970;2022-07-01T01:24:27;2.03;;;1.80;;
67063;SDS011;58476;48.072;11.970;2022-07-01T01:26:52;1.60;;;1.50;;
67063;SDS011;58476;48.072;11.970;2022-07-01T01:29:17;1.85;;;1.70;;
67063;SDS011;58476;48.072;11.970;2022-07-01T01:31:43;2.28;;;1.70;;
67063;SDS011;58476;48.072;11.970;2022-07-01T01:34:08;2.45;;;1.70;;
67063;SDS011;58476;48.072;11.970;2022-07-01T01:36:33;1.67;;;1.58;;
67063;SDS011;58476;48.072;11.970;2022-07-01T01:38:59;1.55;;;1.45;;
67063;SDS011;58476;48.072;11.970;2022-07-01T01:41:24;1.70;;;1.58;;
67063;SDS011;58476;48.072;11.970;2022-07-01T01:43:49;1.67;;;1.58;;
67063;SDS011;58476;48.072;11.970;2022-07-01T01:46:15;1.90;;;1.70;;
67063;SDS011;58476;48.072;11.970;2022-07-01T01:48:40;1.70;;;1.60;;
67063;SDS011;58476;48.072;11.970;2022-07-01T01:51:05;1.77;;;1.67;;
67063;SDS011;58476;48.072;11.970;2022-07-01T01:53:31;1.80;;;1.70;;
67063;SDS011;58476;48.072;11.970;2022-07-01T01:55:56;1.92;;;1.73;;
67063;SDS011;58476;48.072;11.970;2022-07-01T01:58:21;2.03;;;1.83;;
67063;SDS011;58476;48.072;11.970;2022-07-01T02:00:50;3.97;;;1.80;;
67063;SDS011;58476;48.072;11.970;2022-07-01T02:03:16;2.22;;;1.88;;
67063;SDS011;58476;48.072;11.970;2022-07-01T02:05:41;1.90;;;1.70;;
67063;SDS011;58476;48.072;11.970;2022-07-01T02:08:06;2.10;;;1.63;;
67063;SDS011;58476;48.072;11.970;2022-07-01T02:10:32;2.00;;;1.80;;
67063;SDS011;58476;48.072;11.970;2022-07-01T02:12:57;2.05;;;1.85;;
67063;SDS011;58476;48.072;11.970;2022-07-01T02:15:22;2.08;;;1.80;;
67063;SDS011;58476;48.072;11.970;2022-07-01T02:17:48;1.90;;;1.67;;
67063;SDS011;58476;48.072;11.970;2022-07-01T02:20:13;2.15;;;1.90;;
67063;SDS011;58476;48.072;11.970;2022-07-01T02:22:38;1.67;;;1.58;;
67063;SDS011;58476;48.072;11.970;2022-07-01T02:25:04;2.13;;;1.70;;
67063;SDS011;58476;48.072;11.970;2022-07-01T02:27:29;2.00;;;1.77;;
67063;SDS011;58476;48.072;11.970;2022-07-01T02:29:55;2.30;;;1.70;;
67063;SDS011;58476;48.072;11.970;2022-07-01T02:32:20;2.00;;;1.80;;
67063;SDS011;58476;48.072;11.970;2022-07-01T02:34:45;1.70;;;1.60;;
67063;SDS011;58476;48.072;11.970;2022-07-01T02:37:10;1.70;;;1.60;;
67063;SDS011;58476;48.072;11.970;2022-07-01T02:39:36;2.83;;;1.80;;
67063;SDS011;58476;48.072;11.970;2022-07-01T02:42:01;2.10;;;1.65;;
67063;SDS011;58476;48.072;11.970;2022-07-01T02:44:27;2.40;;;1.60;;
67063;SDS011;58476;48.072;11.970;2022-07-01T02:46:52;1.65;;;1.50;;
67063;SDS011;58476;48.072;11.970;2022-07-01T02:49:17;1.88;;;1.60;;
67063;SDS011;58476;48.072;11.970;2022-07-01T02:51:43;1.58;;;1.48;;
67063;SDS011;58476;48.072;11.970;2022-07-01T02:54:08;1.70;;;1.58;;
67063;SDS011;58476;48.072;11.970;2022-07-01T02:56:33;1.95;;;1.63;;
67063;SDS011;58476;48.072;11.970;2022-07-01T02:58:58;2.58;;;1.60;;
67063;SDS011;58476;48.072;11.970;2022-07-01T03:01:24;1.50;;;1.40;;
67063;SDS011;58476;48.072;11.970;2022-07-01T03:03:49;1.60;;;1.50;;
67063;SDS011;58476;48.072;11.970;2022-07-01T03:06:14;1.55;;;1.40;;
67063;SDS011;58476;48.072;11.970;2022-07-01T03:08:40;1.63;;;1.52;;
67063;SDS011;58476;48.072;11.970;2022-07-01T03:11:05;1.77;;;1.50;;
67063;SDS011;58476;48.072;11.970;2022-07-01T03:13:30;1.50;;;1.40;;
67063;SDS011;58476;48.072;11.970;2022-07-01T03:15:56;1.60;;;1.50;;
67063;SDS011;58476;48.072;11.970;2022-07-01T03:18:21;1.60;;;1.50;;
67063;SDS011;58476;48.072;11.970;2022-07-01T03:20:46;1.40;;;1.30;;
67063;SDS011;58476;48.072;11.970;2022-07-01T03:23:12;1.58;;;1.48;;
67063;SDS011;58476;48.072;11.970;2022-07-01T03:25:37;1.60;;;1.50;;
67063;SDS011;58476;48.072;11.970;2022-07-01T03:28:02;1.50;;;1.40;;
67063;SDS011;58476;48.072;11.970;2022-07-01T03:30:28;1.40;;;1.30;;
67063;SDS011;58476;48.072;11.970;2022-07-01T03:32:53;1.52;;;1.42;;
67063;SDS011;58476;48.072;11.970;2022-07-01T03:35:18;1.63;;;1.50;;
67063;SDS011;58476;48.072;11.970;2022-07-01T03:37:44;1.50;;;1.40;;
67063;SDS011;58476;48.072;11.970;2022-07-01T03:40:09;1.50;;;1.40;;
67063;SDS011;58476;48.072;11.970;2022-07-01T03:42:35;1.48;;;1.38;;
67063;SDS011;58476;48.072;11.970;2022-07-01T03:45:00;1.58;;;1.48;;
67063;SDS011;58476;48.072;11.970;2022-07-01T03:47:25;1.60;;;1.50;;
67063;SDS011;58476;48.072;11.970;2022-07-01T03:49:51;1.40;;;1.30;;
67063;SDS011;58476;48.072;11.970;2022-07-01T03:52:16;1.60;;;1.50;;
67063;SDS011;58476;48.072;11.970;2022-07-01T03:54:41;1.40;;;1.30;;
67063;SDS011;58476;48.072;11.970;2022-07-01T03:57:08;2.20;;;1.58;;
67063;SDS011;58476;48.072;11.970;2022-07-01T03:59:38;1.73;;;1.40;;
67063;SDS011;58476;48.072;11.970;2022-07-01T04:04:30;3.53;;;1.40;;
67063;SDS011;58476;48.072;11.970;2022-07-01T04:06:57;1.35;;;1.20;;
67063;SDS011;58476;48.072;11.970;2022-07-01T04:09:23;1.48;;;1.38;;
67063;SDS011;58476;48.072;11.970;2022-07-01T04:11:50;3.55;;;1.25;;
67063;SDS011;58476;48.072;11.970;2022-07-01T04:14:16;1.50;;;1.40;;
67063;SDS011;58476;48.072;11.970;2022-07-01T04:16:43;1.88;;;1.30;;
67063;SDS011;58476;48.072;11.970;2022-07-01T04:19:09;5.50;;;2.00;;
67063;SDS011;58476;48.072;11.970;2022-07-01T04:21:35;3.22;;;1.60;;
67063;SDS011;58476;48.072;11.970;2022-07-01T04:24:01;8.23;;;2.00;;
67063;SDS011;58476;48.072;11.970;2022-07-01T04:26:26;3.80;;;1.67;;
67063;SDS011;58476;48.072;11.970;2022-07-01T04:28:51;3.63;;;1.40;;
67063;SDS011;58476;48.072;11.970;2022-07-01T04:31:18;5.50;;;1.60;;
67063;SDS011;58476;48.072;11.970;2022-07-01T04:33:44;4.47;;;1.30;;
67063;SDS011;58476;48.072;11.970;2022-07-01T04:36:10;4.18;;;1.73;;
67063;SDS011;58476;48.072;11.970;2022-07-01T04:38:36;4.07;;;1.30;;
67063;SDS011;58476;48.072;11.970;2022-07-01T04:41:01;3.80;;;1.40;;
67063;SDS011;58476;48.072;11.970;2022-07-01T04:43:27;10.05;;;1.80;;
67063;SDS011;58476;48.072;11.970;2022-07-01T04:45:52;4.45;;;1.35;;
67063;SDS011;58476;48.072;11.970;2022-07-01T04:48:18;3.30;;;1.40;;
67063;SDS011;58476;48.072;11.970;2022-07-01T04:50:43;3.58;;;1.50;;
67063;SDS011;58476;48.072;11.970;2022-07-01T04:53:08;3.28;;;1.25;;
67063;SDS011;58476;48.072;11.970;2022-07-01T04:55:34;4.38;;;1.40;;
67063;SDS011;58476;48.072;11.970;2022-07-01T04:57:59;2.47;;;1.48;;
67063;SDS011;58476;48.072;11.970;2022-07-01T05:00:24;5.63;;;1.27;;
67063;SDS011;58476;48.072;11.970;2022-07-01T05:02:50;4.95;;;1.13;;
67063;SDS011;58476;48.072;11.970;2022-07-01T05:05:15;4.45;;;1.38;;
67063;SDS011;58476;48.072;11.970;2022-07-01T05:07:40;2.33;;;1.48;;
67063;SDS011;58476;48.072;11.970;2022-07-01T05:10:06;3.13;;;1.60;;
67063;SDS011;58476;48.072;11.970;2022-07-01T05:12:31;8.18;;;1.30;;
67063;SDS011;58476;48.072;11.970;2022-07-01T05:14:57;3.28;;;1.23;;
67063;SDS011;58476;48.072;11.970;2022-07-01T05:17:22;10.82;;;1.80;;
67063;SDS011;58476;48.072;11.970;2022-07-01T05:19:47;5.28;;;2.03;;
67063;SDS011;58476;48.072;11.970;2022-07-01T05:22:13;4.00;;;1.20;;
67063;SDS011;58476;48.072;11.970;2022-07-01T05:24:38;3.88;;;1.20;;
67063;SDS011;58476;48.072;11.970;2022-07-01T05:27:04;3.20;;;1.20;;
67063;SDS011;58476;48.072;11.970;2022-07-01T05:29:29;7.60;;;1.60;;
67063;SDS011;58476;48.072;11.970;2022-07-01T05:31:55;3.08;;;1.10;;
67063;SDS011;58476;48.072;11.970;2022-07-01T05:34:20;7.85;;;1.45;;
67063;SDS011;58476;48.072;11.970;2022-07-01T05:36:46;5.68;;;1.00;;
67063;SDS011;58476;48.072;11.970;2022-07-01T05:39:11;6.10;;;1.30;;
67063;SDS011;58476;48.072;11.970;2022-07-01T05:41:36;4.38;;;1.30;;
67063;SDS011;58476;48.072;11.970;2022-07-01T05:44:02;5.40;;;1.20;;
67063;SDS011;58476;48.072;11.970;2022-07-01T05:46:27;3.63;;;1.15;;
67063;SDS011;58476;48.072;11.970;2022-07-01T05:48:53;2.28;;;1.00;;
67063;SDS011;58476;48.072;11.970;2022-07-01T05:51:18;2.08;;;1.20;;
67063;SDS011;58476;48.072;11.970;2022-07-01T05:53:43;2.60;;;0.98;;
67063;SDS011;58476;48.072;11.970;2022-07-01T05:56:09;1.45;;;1.02;;
67063;SDS011;58476;48.072;11.970;2022-07-01T05:58:34;2.35;;;1.10;;
67063;SDS011;58476;48.072;11.970;2022-07-01T06:00:59;4.95;;;1.20;;
67063;SDS011;58476;48.072;11.970;2022-07-01T06:03:25;3.25;;;0.98;;
67063;SDS011;58476;48.072;11.970;2022-07-01T06:05:50;4.28;;;1.08;;
67063;SDS011;58476;48.072;11.970;2022-07-01T06:08:15;1.00;;;1.00;;
67063;SDS011;58476;48.072;11.970;2022-07-01T06:10:41;1.92;;;1.10;;
67063;SDS011;58476;48.072;11.970;2022-07-01T06:13:06;0.88;;;0.88;;
67063;SDS011;58476;48.072;11.970;2022-07-01T06:15:31;1.05;;;0.95;;
67063;SDS011;58476;48.072;11.970;2022-07-01T06:17:57;0.88;;;0.82;;
67063;SDS011;58476;48.072;11.970;2022-07-01T06:20:23;1.45;;;1.08;;
67063;SDS011;58476;48.072;11.970;2022-07-01T06:22:48;1.00;;;1.00;;
67063;SDS011;58476;48.072;11.970;2022-07-01T06:25:13;1.20;;;1.10;;
67063;SDS011;58476;48.072;11.970;2022-07-01T06:27:39;1.20;;;1.10;;
67063;SDS011;58476;48.072;11.970;2022-07-01T06:30:05;0.90;;;0.90;;
67063;SDS011;58476;48.072;11.970;2022-07-01T06:32:31;2.47;;;1.20;;
67063;SDS011;58476;48.072;11.970;2022-07-01T06:34:56;0.98;;;0.98;;
67063;SDS011;58476;48.072;11.970;2022-07-01T06:37:22;3.10;;;1.20;;
67063;SDS011;58476;48.072;11.970;2022-07-01T06:39:47;1.77;;;1.00;;
67063;SDS011;58476;48.072;11.970;2022-07-01T06:42:12;2.00;;;1.15;;
67063;SDS011;58476;48.072;11.970;2022-07-01T06:44:38;3.15;;;1.10;;
67063;SDS011;58476;48.072;11.970;2022-07-01T06:47:03;3.13;;;1.13;;
67063;SDS011;58476;48.072;11.970;2022-07-01T06:49:28;1.10;;;1.00;;
67063;SDS011;58476;48.072;11.970;2022-07-01T06:51:54;0.80;;;0.80;;
67063;SDS011;58476;48.072;11.970;2022-07-01T06:54:19;1.10;;;1.00;;
67063;SDS011;58476;48.072;11.970;2022-07-01T06:56:45;0.82;;;0.82;;
67063;SDS011;58476;48.072;11.970;2022-07-01T06:59:10;0.82;;;0.80;;
67063;SDS011;58476;48.072;11.970;2022-07-01T07:01:35;0.85;;;0.85;;
67063;SDS011;58476;48.072;11.970;2022-07-01T07:04:01;0.90;;;0.90;;
67063;SDS011;58476;48.072;11.970;2022-07-01T07:06:26;1.15;;;1.00;;
67063;SDS011;58476;48.072;11.970;2022-07-01T07:08:51;5.10;;;1.20;;
67063;SDS011;58476;48.072;11.970;2022-07-01T07:11:17;1.63;;;1.00;;
67063;SDS011;58476;48.072;11.970;2022-07-01T07:13:42;1.13;;;1.00;;
67063;SDS011;58476;48.072;11.970;2022-07-01T07:16:07;1.25;;;1.00;;
67063;SDS011;58476;48.072;11.970;2022-07-01T07:18:33;0.98;;;0.98;;
67063;SDS011;58476;48.072;11.970;2022-07-01T07:20:58;1.58;;;1.10;;
67063;SDS011;58476;48.072;11.970;2022-07-01T07:23:24;1.52;;;1.00;;
67063;SDS011;58476;48.072;11.970;2022-07-01T07:25:49;0.80;;;0.80;;
67063;SDS011;58476;48.072;11.970;2022-07-01T07:28:15;1.40;;;1.10;;
67063;SDS011;58476;48.072;11.970;2022-07-01T07:30:40;0.90;;;0.90;;
67063;SDS011;58476;48.072;11.970;2022-07-01T07:33:05;1.58;;;1.02;;
67063;SDS011;58476;48.072;11.970;2022-07-01T07:35:31;1.15;;;1.00;;
67063;SDS011;58476;48.072;11.970;2022-07-01T07:37:56;1.55;;;1.45;;
67063;SDS011;58476;48.072;11.970;2022-07-01T07:40:21;3.10;;;1.10;;
67063;SDS011;58476;48.072;11.970;2022-07-01T07:42:47;1.80;;;1.02;;
67063;SDS011;58476;48.072;11.970;2022-07-01T07:45:13;1.63;;;1.52;;
67063;SDS011;58476;48.072;11.970;2022-07-01T07:47:45;1.52;;;1.10;;
67063;SDS011;58476;48.072;11.970;2022-07-01T07:50:12;3.80;;;1.20;;
67063;SDS011;58476;48.072;11.970;2022-07-01T07:52:38;1.48;;;1.30;;
67063;SDS011;58476;48.072;11.970;2022-07-01T07:55:05;3.15;;;1.30;;
67063;SDS011;58476;48.072;11.970;2022-07-01T07:57:31;2.08;;;1.05;;
67063;SDS011;58476;48.072;11.970;2022-07-01T07:59:56;1.58;;;1.20;;
67063;SDS011;58476;48.072;11.970;2022-07-01T08:02:22;2.33;;;1.38;;
67063;SDS011;58476;48.072;11.970;2022-07-01T08:04:47;1.13;;;1.02;;
67063;SDS011;58476;48.072;11.970;2022-07-01T08:07:12;1.77;;;1.05;;
67063;SDS011;58476;48.072;11.970;2022-07-01T08:09:38;2.33;;;1.10;;
67063;SDS011;58476;48.072;11.970;2022-07-01T08:12:03;1.60;;;1.10;;
67063;SDS011;58476;48.072;11.970;2022-07-01T08:14:29;2.35;;;1.20;;
67063;SDS011;58476;48.072;11.970;2022-07-01T08:16:54;0.90;;;0.90;;
67063;SDS011;58476;48.072;11.970;2022-07-01T08:19:20;1.20;;;1.05;;
67063;SDS011;58476;48.072;11.970;2022-07-01T08:21:45;1.90;;;0.93;;
67063;SDS011;58476;48.072;11.970;2022-07-01T08:24:11;2.55;;;1.15;;
67063;SDS011;58476;48.072;11.970;2022-07-01T08:26:36;0.98;;;0.98;;
67063;SDS011;58476;48.072;11.970;2022-07-01T08:29:02;1.17;;;1.10;;
67063;SDS011;58476;48.072;11.970;2022-07-01T08:31:27;1.08;;;1.08;;
67063;SDS011;58476;48.072;11.970;2022-07-01T08:33:53;2.58;;;1.20;;
67063;SDS011;58476;48.072;11.970;2022-07-01T08:36:18;1.20;;;1.10;;
67063;SDS011;58476;48.072;11.970;2022-07-01T08:38:43;1.17;;;1.10;;
67063;SDS011;58476;48.072;11.970;2022-07-01T08:41:09;5.95;;;1.25;;
67063;SDS011;58476;48.072;11.970;2022-07-01T08:43:34;1.63;;;1.10;;
67063;SDS011;58476;48.072;11.970;2022-07-01T08:46:00;1.20;;;1.10;;
67063;SDS011;58476;48.072;11.970;2022-07-01T08:48:26;1.02;;;1.02;;
67063;SDS011;58476;48.072;11.970;2022-07-01T08:50:54;1.40;;;1.30;;
67063;SDS011;58476;48.072;11.970;2022-07-01T08:53:20;1.55;;;1.40;;
67063;SDS011;58476;48.072;11.970;2022-07-01T08:55:46;1.70;;;1.40;;
67063;SDS011;58476;48.072;11.970;2022-07-01T08:58:11;1.80;;;1.70;;
67063;SDS011;58476;48.072;11.970;2022-07-01T09:00:37;2.22;;;1.90;;
67063;SDS011;58476;48.072;11.970;2022-07-01T09:03:02;3.08;;;2.00;;
67063;SDS011;58476;48.072;11.970;2022-07-01T09:05:29;3.08;;;2.30;;
67063;SDS011;58476;48.072;11.970;2022-07-01T09:07:59;2.83;;;2.40;;
67063;SDS011;58476;48.072;11.970;2022-07-01T09:10:27;2.90;;;1.80;;
67063;SDS011;58476;48.072;11.970;2022-07-01T09:12:54;1.35;;;1.25;;
67063;SDS011;58476;48.072;11.970;2022-07-01T09:17:47;2.75;;;1.00;;
67063;SDS011;58476;48.072;11.970;2022-07-01T09:20:23;0.93;;;0.57;;
67063;SDS011;58476;48.072;11.970;2022-07-01T09:22:59;1.45;;;0.70;;
67063;SDS011;58476;48.072;11.970;2022-07-01T09:25:29;1.48;;;0.80;;
67063;SDS011;58476;48.072;11.970;2022-07-01T09:28:02;2.05;;;0.90;;
67063;SDS011;58476;48.072;11.970;2022-07-01T09:30:31;1.20;;;1.00;;
67063;SDS011;58476;48.072;11.970;2022-07-01T09:35:33;0.80;;;0.80;;
67063;SDS011;58476;48.072;11.970;2022-07-01T09:38:00;2.75;;;0.98;;
67063;SDS011;58476;48.072;11.970;2022-07-01T09:40:25;1.40;;;0.73;;
67063;SDS011;58476;48.072;11.970;2022-07-01T09:42:51;2.17;;;1.00;;
67063;SDS011;58476;48.072;11.970;2022-07-01T09:45:16;2.10;;;0.75;;
67063;SDS011;58476;48.072;11.970;2022-07-01T09:47:42;0.60;;;0.60;;
67063;SDS011;58476;48.072;11.970;2022-07-01T09:50:08;0.98;;;0.50;;
67063;SDS011;58476;48.072;11.970;2022-07-01T09:52:34;1.33;;;0.65;;
67063;SDS011;58476;48.072;11.970;2022-07-01T09:55:00;2.65;;;0.60;;
67063;SDS011;58476;48.072;11.970;2022-07-01T09:57:26;1.77;;;0.60;;
67063;SDS011;58476;48.072;11.970;2022-07-01T09:59:52;0.60;;;0.60;;
67063;SDS011;58476;48.072;11.970;2022-07-01T10:02:18;1.45;;;0.73;;
67063;SDS011;58476;48.072;11.970;2022-07-01T10:05:18;0.50;;;0.50;;
67063;SDS011;58476;48.072;11.970;2022-07-01T10:10:55;0.70;;;0.60;;
67063;SDS011;58476;48.072;11.970;2022-07-01T10:13:36;0.50;;;0.47;;
67063;SDS011;58476;48.072;11.970;2022-07-01T10:16:02;0.82;;;0.70;;
67063;SDS011;58476;48.072;11.970;2022-07-01T10:18:28;0.93;;;0.80;;
67063;SDS011;58476;48.072;11.970;2022-07-01T10:20:55;1.30;;;0.60;;
67063;SDS011;58476;48.072;11.970;2022-07-01T10:23:22;1.33;;;0.88;;
67063;SDS011;58476;48.072;11.970;2022-07-01T10:26:02;1.60;;;0.73;;
67063;SDS011;58476;48.072;11.970;2022-07-01T10:28:31;2.30;;;0.73;;
67063;SDS011;58476;48.072;11.970;2022-07-01T10:31:05;2.60;;;0.80;;
67063;SDS011;58476;48.072;11.970;2022-07-01T10:33:33;1.38;;;0.70;;
67063;SDS011;58476;48.072;11.970;2022-07-01T10:36:07;2.55;;;0.80;;
67063;SDS011;58476;48.072;11.970;2022-07-01T10:39:07;1.27;;;0.60;;
67063;SDS011;58476;48.072;11.970;2022-07-01T10:41:28;3.00;;;1.13;;
67063;SDS011;58476;48.072;11.970;2022-07-01T10:43:58;2.85;;;0.65;;
67063;SDS011;58476;48.072;11.970;2022-07-01T10:46:38;0.68;;;0.68;;
67063;SDS011;58476;48.072;11.970;2022-07-01T10:49:08;0.95;;;0.70;;
67063;SDS011;58476;48.072;11.970;2022-07-01T10:51:49;0.50;;;0.50;;
67063;SDS011;58476;48.072;11.970;2022-07-01T10:59:40;1.15;;;0.70;;
67063;SDS011;58476;48.072;11.970;2022-07-01T11:02:12;0.80;;;0.70;;
67063;SDS011;58476;48.072;11.970;2022-07-01T11:04:40;2.50;;;0.60;;
67063;SDS011;58476;48.072;11.970;2022-07-01T11:07:05;0.70;;;0.70;;
67063;SDS011;58476;48.072;11.970;2022-07-01T11:09:30;0.95;;;0.68;;
67063;SDS011;58476;48.072;11.970;2022-07-01T11:11:56;0.50;;;0.50;;
67063;SDS011;58476;48.072;11.970;2022-07-01T11:14:21;3.00;;;0.50;;
67063;SDS011;58476;48.072;11.970;2022-07-01T11:16:47;0.63;;;0.63;;
67063;SDS011;58476;48.072;11.970;2022-07-01T11:19:12;1.02;;;0.55;;
67063;SDS011;58476;48.072;11.970;2022-07-01T11:21:37;0.30;;;0.30;;
67063;SDS011;58476;48.072;11.970;2022-07-01T11:24:07;0.57;;;0.50;;
67063;SDS011;58476;48.072;11.970;2022-07-01T11:26:33;1.45;;;0.70;;
67063;SDS011;58476;48.072;11.970;2022-07-01T11:28:59;0.85;;;0.63;;
67063;SDS011;58476;48.072;11.970;2022-07-01T11:31:27;1.35;;;0.75;;
67063;SDS011;58476;48.072;11.970;2022-07-01T11:33:56;0.85;;;0.60;;
67063;SDS011;58476;48.072;11.970;2022-07-01T11:36:21;0.70;;;0.60;;
67063;SDS011;58476;48.072;11.970;2022-07-01T11:38:47;0.70;;;0.70;;
67063;SDS011;58476;48.072;11.970;2022-07-01T11:41:23;1.10;;;0.70;;
67063;SDS011;58476;48.072;11.970;2022-07-01T11:43:49;0.60;;;0.60;;
67063;SDS011;58476;48.072;11.970;2022-07-01T11:46:15;0.60;;;0.60;;
67063;SDS011;58476;48.072;11.970;2022-07-01T11:48:45;1.08;;;0.63;;
67063;SDS011;58476;48.072;11.970;2022-07-01T11:51:14;0.70;;;0.70;;
67063;SDS011;58476;48.072;11.970;2022-07-01T11:53:41;1.33;;;0.90;;
67063;SDS011;58476;48.072;11.970;2022-07-01T11:56:08;0.80;;;0.80;;
67063;SDS011;58476;48.072;11.970;2022-07-01T11:58:50;1.73;;;0.75;;
67063;SDS011;58476;48.072;11.970;2022-07-01T12:01:21;0.95;;;0.93;;
67063;SDS011;58476;48.072;11.970;2022-07-01T12:03:51;0.70;;;0.70;;
67063;SDS011;58476;48.072;11.970;2022-07-01T12:06:17;0.60;;;0.60;;
67063;SDS011;58476;48.072;11.970;2022-07-01T12:08:43;1.90;;;0.70;;
67063;SDS011;58476;48.072;11.970;2022-07-01T12:11:09;0.82;;;0.70;;
67063;SDS011;58476;48.072;11.970;2022-07-01T12:13:35;1.00;;;0.55;;
67063;SDS011;58476;48.072;11.970;2022-07-01T12:16:10;0.68;;;0.68;;
67063;SDS011;58476;48.072;11.970;2022-07-01T12:18:36;2.08;;;0.80;;
67063;SDS011;58476;48.072;11.970;2022-07-01T12:21:02;0.95;;;0.40;;
67063;SDS011;58476;48.072;11.970;2022-07-01T12:23:28;1.23;;;0.80;;
67063;SDS011;58476;48.072;11.970;2022-07-01T12:25:53;2.58;;;0.77;;
67063;SDS011;58476;48.072;11.970;2022-07-01T12:28:28;1.98;;;0.63;;
67063;SDS011;58476;48.072;11.970;2022-07-01T12:33:39;6.35;;;0.73;;
67063;SDS011;58476;48.072;11.970;2022-07-01T12:36:13;6.63;;;0.70;;
67063;SDS011;58476;48.072;11.970;2022-07-01T12:38:38;7.57;;;1.23;;
67063;SDS011;58476;48.072;11.970;2022-07-01T12:41:12;10.18;;;1.30;;
67063;SDS011;58476;48.072;11.970;2022-07-01T12:43:52;2.95;;;0.95;;
67063;SDS011;58476;48.072;11.970;2022-07-01T12:46:28;8.60;;;0.80;;
67063;SDS011;58476;48.072;11.970;2022-07-01T12:48:55;5.63;;;0.82;;
67063;SDS011;58476;48.072;11.970;2022-07-01T12:51:21;8.13;;;1.00;;
67063;SDS011;58476;48.072;11.970;2022-07-01T12:53:53;6.45;;;0.90;;
67063;SDS011;58476;48.072;11.970;2022-07-01T12:56:23;4.13;;;0.77;;
67063;SDS011;58476;48.072;11.970;2022-07-01T13:01:15;3.58;;;1.00;;
67063;SDS011;58476;48.072;11.970;2022-07-01T13:03:40;8.07;;;0.88;;
67063;SDS011;58476;48.072;11.970;2022-07-01T13:06:06;10.98;;;1.10;;
67063;SDS011;58476;48.072;11.970;2022-07-01T13:08:32;5.18;;;1.00;;
67063;SDS011;58476;48.072;11.970;2022-07-01T13:10:57;4.43;;;0.70;;
67063;SDS011;58476;48.072;11.970;2022-07-01T13:13:23;4.60;;;1.20;;
67063;SDS011;58476;48.072;11.970;2022-07-01T13:15:49;4.53;;;0.57;;
67063;SDS011;58476;48.072;11.970;2022-07-01T13:18:14;4.30;;;0.80;;
67063;SDS011;58476;48.072;11.970;2022-07-01T13:20:40;3.13;;;0.70;;
67063;SDS011;58476;48.072;11.970;2022-07-01T13:23:06;3.63;;;0.80;;
67063;SDS011;58476;48.072;11.970;2022-07-01T13:25:31;3.33;;;0.70;;
67063;SDS011;58476;48.072;11.970;2022-07-01T13:27:57;2.25;;;0.80;;
67063;SDS011;58476;48.072;11.970;2022-07-01T13:30:23;8.52;;;1.55;;
67063;SDS011;58476;48.072;11.970;2022-07-01T13:32:48;2.65;;;0.60;;
67063;SDS011;58476;48.072;11.970;2022-07-01T13:35:13;2.92;;;0.80;;
67063;SDS011;58476;48.072;11.970;2022-07-01T13:37:39;5.32;;;0.98;;
67063;SDS011;58476;48.072;11.970;2022-07-01T13:40:05;14.20;;;0.93;;
67063;SDS011;58476;48.072;11.970;2022-07-01T13:42:31;3.35;;;1.08;;
67063;SDS011;58476;48.072;11.970;2022-07-01T13:44:57;3.45;;;0.70;;
67063;SDS011;58476;48.072;11.970;2022-07-01T13:47:22;7.63;;;0.80;;
67063;SDS011;58476;48.072;11.970;2022-07-01T13:49:48;5.65;;;0.80;;
67063;SDS011;58476;48.072;11.970;2022-07-01T13:52:14;5.43;;;0.90;;
67063;SDS011;58476;48.072;11.970;2022-07-01T13:54:39;5.97;;;0.90;;
67063;SDS011;58476;48.072;11.970;2022-07-01T13:57:05;4.60;;;1.00;;
67063;SDS011;58476;48.072;11.970;2022-07-01T13:59:30;3.35;;;1.00;;
67063;SDS011;58476;48.072;11.970;2022-07-01T14:01:56;2.45;;;0.82;;
67063;SDS011;58476;48.072;11.970;2022-07-01T14:04:22;2.85;;;0.80;;
67063;SDS011;58476;48.072;11.970;2022-07-01T14:06:48;2.33;;;1.00;;
67063;SDS011;58476;48.072;11.970;2022-07-01T14:09:13;1.50;;;0.60;;
67063;SDS011;58476;48.072;11.970;2022-07-01T14:11:39;1.63;;;0.70;;
67063;SDS011;58476;48.072;11.970;2022-07-01T14:14:04;3.65;;;0.73;;
67063;SDS011;58476;48.072;11.970;2022-07-01T14:16:29;2.30;;;0.50;;
67063;SDS011;58476;48.072;11.970;2022-07-01T14:18:55;0.82;;;0.60;;
67063;SDS011;58476;48.072;11.970;2022-07-01T14:21:21;1.58;;;0.73;;
67063;SDS011;58476;48.072;11.970;2022-07-01T14:23:47;1.92;;;0.70;;
67063;SDS011;58476;48.072;11.970;2022-07-01T14:26:13;2.40;;;0.60;;
67063;SDS011;58476;48.072;11.970;2022-07-01T14:28:38;2.25;;;0.82;;
67063;SDS011;58476;48.072;11.970;2022-07-01T14:31:03;1.77;;;0.80;;
67063;SDS011;58476;48.072;11.970;2022-07-01T14:33:29;1.13;;;0.60;;
67063;SDS011;58476;48.072;11.970;2022-07-01T14:35:54;1.65;;;0.70;;
67063;SDS011;58476;48.072;11.970;2022-07-01T14:38:19;0.73;;;0.70;;
67063;SDS011;58476;48.072;11.970;2022-07-01T14:40:45;4.72;;;1.10;;
67063;SDS011;58476;48.072;11.970;2022-07-01T14:43:10;2.50;;;0.75;;
67063;SDS011;58476;48.072;11.970;2022-07-01T14:45:36;2.65;;;1.33;;
67063;SDS011;58476;48.072;11.970;2022-07-01T14:48:01;1.67;;;0.80;;
67063;SDS011;58476;48.072;11.970;2022-07-01T14:50:27;2.00;;;0.60;;